»·PEaware :: N1765R KGEG-KHQM

N1765R :: KGEG-KHQM

FLIGHT INFORMATION

Flight Status: Arrived
Operator: Privately registered:
United States
More flights under this callsign
Pilot: Eric S. (19226)
Aircraft: SOCATA TBM-900
(TBM9)
More flights by this aircraft type
Origin: KGEG Spokane Intl
United States
Destination: KHQM Bowerman
United States
More flights between these airports :: More routes between these airports
Route: +GEG6 GEG MWH TCM
File this flight plan on PilotEdge
Remarks:
Altitude:
(Current/Filed)
28,000ft
Speed:
(Current/Filed)
311kts
Departed: 03-Oct-20 01:35 PM
Arrived: 03-Oct-20 03:08 PM
Distance/Time
Traveled:
263nm/1:33
Distance/Time
To Go:
Arrived

Flight Plot

Page will automatically refresh every two minutes.

Flight plan parsing failed; only flown route is shown


Map Options




Map Legend


Flown Route
Filed Route
Departure Airport
Arrival Airport
Navaid (VOR, NDB)
Fix

Horizontal Profiles

Position Reports

Time Latitude Longitude Heading Altitude Ground
Speed
03-Oct-20 13:00 47.623356 -117.524544 254 2351ft 0kts
03-Oct-20 13:01 47.623354 -117.524552 254 2351ft 0kts
03-Oct-20 13:02 47.623268 -117.525026 253 2352ft 0kts
03-Oct-20 13:03 47.623359 -117.524735 255 2352ft 0kts
03-Oct-20 13:04 47.623359 -117.524735 255 2352ft 0kts
03-Oct-20 13:05 47.623359 -117.524735 255 2352ft 0kts
03-Oct-20 13:06 47.623359 -117.524735 255 2352ft 0kts
03-Oct-20 13:08 47.623359 -117.524735 255 2352ft 0kts
03-Oct-20 13:09 47.623359 -117.524735 255 2352ft 0kts
03-Oct-20 13:10 47.623359 -117.524735 255 2352ft 0kts
03-Oct-20 13:11 47.623359 -117.524735 255 2352ft 0kts
03-Oct-20 13:12 47.623359 -117.524735 255 2352ft 0kts
03-Oct-20 13:13 47.623359 -117.524735 255 2352ft 0kts
03-Oct-20 13:14 47.623359 -117.524735 255 2352ft 0kts
03-Oct-20 13:15 47.623359 -117.524735 255 2352ft 0kts
03-Oct-20 13:16 47.623359 -117.524735 255 2352ft 0kts
03-Oct-20 13:17 47.623359 -117.524735 255 2352ft 0kts
03-Oct-20 13:18 47.623359 -117.524735 255 2352ft 0kts
03-Oct-20 13:19 47.623359 -117.524735 255 2352ft 0kts
03-Oct-20 13:20 47.623359 -117.524735 255 2352ft 0kts
03-Oct-20 13:21 47.623359 -117.524735 255 2352ft 0kts
03-Oct-20 13:22 47.623359 -117.524735 255 2352ft 0kts
03-Oct-20 13:23 47.623359 -117.524735 255 2352ft 0kts
03-Oct-20 13:24 47.623359 -117.524735 255 2352ft 0kts
03-Oct-20 13:24 47.623359 -117.524735 255 2352ft 0kts
03-Oct-20 13:26 47.623359 -117.524735 255 2352ft 0kts
03-Oct-20 13:27 47.623359 -117.524735 255 2352ft 0kts
03-Oct-20 13:27 47.623359 -117.524735 255 2352ft 0kts
03-Oct-20 13:28 47.623359 -117.524735 255 2352ft 0kts
03-Oct-20 13:30 47.627415 -117.520503 44 2339ft 24kts
03-Oct-20 13:30 47.630351 -117.517209 311 2322ft 0kts
03-Oct-20 13:31 47.630351 -117.517209 311 2322ft 0kts
03-Oct-20 13:32 47.630351 -117.517209 311 2322ft 0kts
03-Oct-20 13:33 47.630796 -117.517927 310 2322ft 11kts
03-Oct-20 13:34 47.615440 -117.541263 227 3121ft 128kts
03-Oct-20 13:35 47.587831 -117.581474 223 5276ft 144kts
03-Oct-20 13:36 47.556127 -117.625437 224 7448ft 164kts
03-Oct-20 13:37 47.519473 -117.674889 224 9271ft 184kts
03-Oct-20 13:38 47.484309 -117.729691 258 11129ft 181kts
03-Oct-20 13:39 47.472693 -117.804447 256 13110ft 185kts
03-Oct-20 13:40 47.460038 -117.881070 256 15061ft 190kts
03-Oct-20 13:41 47.447082 -117.958748 256 16797ft 194kts
03-Oct-20 13:42 47.433787 -118.038049 256 18345ft 198kts
03-Oct-20 13:43 47.420003 -118.119892 256 20057ft 203kts
03-Oct-20 13:44 47.406055 -118.202307 256 21799ft 207kts
03-Oct-20 13:45 47.391724 -118.286575 256 23412ft 212kts
03-Oct-20 13:46 47.377005 -118.372707 256 25034ft 217kts
03-Oct-20 13:47 47.361902 -118.460657 255 26710ft 223kts
03-Oct-20 13:48 47.346307 -118.551003 255 28167ft 234kts
03-Oct-20 13:49 47.328614 -118.652902 255 28165ft 270kts
03-Oct-20 13:50 47.309113 -118.764542 255 28160ft 284kts
03-Oct-20 13:51 47.289020 -118.879009 254 28157ft 289kts
03-Oct-20 13:52 47.268370 -118.995800 253 28154ft 289kts
03-Oct-20 13:53 47.247701 -119.111749 252 28153ft 289kts
03-Oct-20 13:54 47.227058 -119.226936 252 28153ft 289kts
03-Oct-20 13:55 47.210776 -119.344375 265 28154ft 292kts
03-Oct-20 13:56 47.209842 -119.465277 266 28146ft 293kts
03-Oct-20 13:57 47.208875 -119.584978 266 28143ft 292kts
03-Oct-20 13:58 47.207785 -119.704444 265 28146ft 292kts
03-Oct-20 13:59 47.206558 -119.823913 266 28137ft 293kts
03-Oct-20 14:00 47.205230 -119.943740 266 28136ft 293kts
03-Oct-20 14:01 47.203768 -120.063380 266 28136ft 293kts
03-Oct-20 14:02 47.202175 -120.183379 266 28135ft 293kts
03-Oct-20 14:03 47.200465 -120.302872 266 28138ft 292kts
03-Oct-20 14:04 47.198618 -120.423127 266 28147ft 292kts
03-Oct-20 14:05 47.196648 -120.543211 266 28152ft 292kts
03-Oct-20 14:06 47.194552 -120.663190 266 28154ft 292kts
03-Oct-20 14:07 47.192345 -120.782601 266 28155ft 292kts
03-Oct-20 14:08 47.190005 -120.902373 266 28155ft 292kts
03-Oct-20 14:09 47.187538 -121.022095 266 28154ft 293kts
03-Oct-20 14:10 47.184944 -121.142037 266 28154ft 294kts
03-Oct-20 14:11 47.182224 -121.262164 266 28156ft 296kts
03-Oct-20 14:12 47.179353 -121.383166 266 28160ft 296kts
03-Oct-20 14:13 47.176354 -121.504163 266 28104ft 298kts
03-Oct-20 14:14 47.173174 -121.626972 266 26818ft 308kts
03-Oct-20 14:15 47.169803 -121.752098 265 25537ft 311kts
03-Oct-20 14:16 47.166327 -121.876251 265 24261ft 312kts
03-Oct-20 14:17 47.162736 -121.999776 265 22885ft 305kts
03-Oct-20 14:18 47.159110 -122.120029 265 21501ft 299kts
03-Oct-20 14:19 47.155395 -122.239052 265 20120ft 297kts
03-Oct-20 14:20 47.151601 -122.356778 265 18747ft 293kts
03-Oct-20 14:21 47.147822 -122.469797 264 17379ft 284kts
03-Oct-20 14:22 47.136053 -122.576540 259 16525ft 267kts
03-Oct-20 14:23 47.123964 -122.679438 258 14634ft 274kts
03-Oct-20 14:24 47.111907 -122.782197 258 12764ft 274kts
03-Oct-20 14:25 47.099397 -122.887624 258 10840ft 272kts
03-Oct-20 14:26 47.087500 -122.987185 259 9048ft 267kts
03-Oct-20 14:27 47.076203 -123.081099 259 8220ft 249kts
03-Oct-20 14:28 47.065580 -123.168665 259 7234ft 239kts
03-Oct-20 14:29 47.055707 -123.249617 260 6282ft 233kts
03-Oct-20 14:30 47.046461 -123.324989 260 5421ft 231kts
03-Oct-20 14:31 47.037691 -123.396011 260 4617ft 214kts
03-Oct-20 14:32 47.029931 -123.458586 260 3972ft 199kts
03-Oct-20 14:33 47.023076 -123.513615 260 3975ft 175kts
03-Oct-20 14:34 47.016339 -123.567513 260 3992ft 169kts
03-Oct-20 14:35 47.009629 -123.620945 260 3999ft 168kts
03-Oct-20 14:36 47.004836 -123.667490 254 3343ft 156kts
03-Oct-20 14:37 46.999122 -123.706775 260 2072ft 122kts
03-Oct-20 14:38 46.995088 -123.740159 261 2104ft 124kts
03-Oct-20 14:39 46.990624 -123.777195 261 2105ft 131kts
03-Oct-20 14:40 46.986073 -123.814725 261 1800ft 122kts
03-Oct-20 14:41 46.982640 -123.842961 261 1376ft 122kts
03-Oct-20 14:42 46.978336 -123.878036 260 812ft 120kts
03-Oct-20 14:43 46.971383 -123.932673 260 798ft 150kts
03-Oct-20 14:44 46.964876 -123.984227 260 2597ft 153kts
03-Oct-20 14:45 46.958835 -124.032916 261 2703ft 174kts
03-Oct-20 14:46 46.981531 -124.054945 29 2999ft 177kts
03-Oct-20 14:47 46.990816 -124.005108 85 3008ft 192kts
03-Oct-20 14:48 46.993409 -123.947697 85 3002ft 196kts
03-Oct-20 14:49 46.995985 -123.889810 85 3000ft 197kts
03-Oct-20 14:50 46.998355 -123.835938 85 3000ft 198kts
03-Oct-20 14:51 47.000405 -123.788866 85 3000ft 198kts
03-Oct-20 14:52 47.002393 -123.742779 85 3000ft 198kts
03-Oct-20 14:53 47.004851 -123.685174 85 2994ft 190kts
03-Oct-20 14:54 47.009134 -123.629883 75 2997ft 180kts
03-Oct-20 14:55 47.018035 -123.575619 75 2997ft 177kts
03-Oct-20 14:56 47.032233 -123.531286 18 2985ft 171kts
03-Oct-20 14:57 47.050859 -123.557991 249 2988ft 159kts
03-Oct-20 14:58 47.027185 -123.586578 213 2996ft 155kts
03-Oct-20 14:59 47.008655 -123.619505 263 3003ft 149kts
03-Oct-20 15:00 47.004272 -123.663524 259 2936ft 138kts
03-Oct-20 15:01 46.999673 -123.702115 259 2320ft 132kts
03-Oct-20 15:02 46.995183 -123.739390 259 2097ft 129kts
03-Oct-20 15:03 46.990747 -123.776164 259 2098ft 128kts
03-Oct-20 15:05 46.986149 -123.814125 259 1823ft 128kts
03-Oct-20 15:06 46.980896 -123.857251 259 1163ft 131kts
03-Oct-20 15:07 46.974531 -123.908570 258 396ft 102kts
03-Oct-20 15:08 46.970890 -123.939620 299 26ft 18kts
03-Oct-20 15:09 46.972462 -123.938994 265 26ft 0kts
03-Oct-20 15:10 46.972462 -123.938994 265 26ft 0kts
03-Oct-20 15:11 46.972462 -123.938994 265 26ft 0kts
03-Oct-20 15:12 46.972466 -123.938904 262 26ft 0kts
03-Oct-20 15:13 46.972466 -123.938904 262 26ft 0kts

Navigation Log

Ident Type
Flight plan parsing failed, navigation log unavailable